createdAt,value
2019-01-31T00:01:14.358Z,2.20
2019-01-31T00:04:09.642Z,2.20
2019-01-31T00:07:03.643Z,2.20
2019-01-31T00:10:13.631Z,2.20
2019-01-31T00:13:09.575Z,2.30
2019-01-31T00:16:05.954Z,2.30
2019-01-31T00:19:11.163Z,2.30
2019-01-31T00:22:21.975Z,2.30
2019-01-31T00:24:59.315Z,2.30
2019-01-31T00:27:49.522Z,2.30
2019-01-31T00:30:49.888Z,2.40
2019-01-31T00:33:45.544Z,2.30
2019-01-31T00:36:51.680Z,2.20
2019-01-31T00:40:00.925Z,2.30
2019-01-31T00:42:54.190Z,2.30
2019-01-31T00:45:49.724Z,2.30
2019-01-31T00:48:37.274Z,2.30
2019-01-31T00:51:29.364Z,2.30
2019-01-31T00:54:27.179Z,2.30
2019-01-31T00:57:42.000Z,2.30
2019-01-31T01:00:36.498Z,2.20
2019-01-31T01:03:29.120Z,2.10
2019-01-31T01:06:38.288Z,2.00
2019-01-31T01:09:31.627Z,2.10
2019-01-31T01:12:26.007Z,2.00
2019-01-31T01:15:35.041Z,2.00
2019-01-31T01:18:13.577Z,2.00
2019-01-31T01:20:53.842Z,2.00
2019-01-31T01:24:02.205Z,2.00
2019-01-31T01:26:53.912Z,2.00
2019-01-31T01:30:00.368Z,1.80
2019-01-31T01:33:12.567Z,1.70
2019-01-31T01:35:55.212Z,1.60
2019-01-31T01:39:06.544Z,1.50
2019-01-31T01:42:08.300Z,1.40
2019-01-31T01:45:19.303Z,1.20
2019-01-31T01:48:12.232Z,1.10
2019-01-31T01:50:57.872Z,1.00
2019-01-31T01:53:48.035Z,0.90
2019-01-31T01:56:30.976Z,0.80
2019-01-31T01:59:34.103Z,0.70
2019-01-31T02:02:43.803Z,0.70
2019-01-31T02:06:18.835Z,0.60
2019-01-31T02:09:14.776Z,0.60
2019-01-31T02:12:29.581Z,0.50
2019-01-31T02:15:47.383Z,0.50
2019-01-31T02:18:45.805Z,0.50
2019-01-31T02:21:28.476Z,0.50
2019-01-31T02:24:24.567Z,0.50
2019-01-31T02:27:54.352Z,0.40
2019-01-31T02:30:57.031Z,0.50
2019-01-31T02:34:02.064Z,0.50
2019-01-31T02:37:01.911Z,0.50
2019-01-31T02:40:13.689Z,0.50
2019-01-31T02:43:09.794Z,0.50
2019-01-31T02:46:15.768Z,0.60
2019-01-31T02:49:04.787Z,0.50
2019-01-31T02:51:44.469Z,0.50
2019-01-31T02:54:22.672Z,0.40
2019-01-31T02:57:24.297Z,0.20
2019-01-31T03:00:29.183Z,0.10
2019-01-31T03:03:08.172Z,0.00
2019-01-31T03:06:32.756Z,-0.10
2019-01-31T03:09:54.596Z,-0.10
2019-01-31T03:12:52.267Z,0.00
2019-01-31T03:15:55.832Z,0.30
2019-01-31T03:18:47.904Z,0.40
2019-01-31T03:21:38.671Z,0.60
2019-01-31T03:24:43.446Z,0.80
2019-01-31T03:27:57.702Z,0.90
2019-01-31T03:31:18.504Z,1.10
2019-01-31T03:34:15.504Z,1.20
2019-01-31T03:37:27.081Z,1.30
2019-01-31T03:40:31.317Z,1.40
2019-01-31T03:43:36.316Z,1.40
2019-01-31T03:46:47.991Z,1.50
2019-01-31T03:49:54.923Z,1.50
2019-01-31T03:52:50.597Z,1.60
2019-01-31T03:56:05.670Z,1.70
2019-01-31T03:59:03.948Z,1.70
2019-01-31T04:01:57.831Z,1.80
2019-01-31T04:04:39.277Z,1.80
2019-01-31T04:07:09.965Z,1.90
2019-01-31T04:09:40.876Z,1.90
2019-01-31T04:12:10.651Z,1.90
2019-01-31T04:14:41.119Z,1.90
2019-01-31T04:17:11.780Z,2.00
2019-01-31T04:19:42.720Z,2.00
2019-01-31T04:22:13.944Z,2.00
2019-01-31T04:24:44.779Z,2.00
2019-01-31T04:27:18.004Z,2.10
2019-01-31T04:29:50.928Z,2.10
2019-01-31T04:32:21.627Z,2.10
2019-01-31T04:34:52.583Z,2.20
2019-01-31T04:37:23.464Z,2.20
2019-01-31T04:39:54.424Z,2.20
2019-01-31T04:42:25.179Z,2.20
2019-01-31T04:44:55.989Z,2.20
2019-01-31T04:47:26.689Z,2.20
2019-01-31T04:49:59.555Z,2.20
2019-01-31T04:52:30.358Z,2.20
2019-01-31T04:55:10.022Z,2.50
2019-01-31T04:57:40.021Z,2.20
2019-01-31T05:00:13.824Z,2.10
2019-01-31T05:02:44.588Z,2.10
2019-01-31T05:05:15.606Z,2.20
2019-01-31T05:07:46.576Z,2.20
2019-01-31T05:10:17.388Z,2.20
2019-01-31T05:12:47.653Z,2.20
2019-01-31T05:15:17.123Z,2.20
2019-01-31T05:17:46.619Z,2.10
2019-01-31T05:20:19.299Z,2.10
2019-01-31T05:22:49.148Z,2.10
2019-01-31T05:25:20.337Z,2.00
2019-01-31T05:27:50.779Z,2.00
2019-01-31T05:30:24.990Z,1.90
2019-01-31T05:32:54.513Z,2.00
2019-01-31T05:35:24.024Z,2.00
2019-01-31T05:37:56.490Z,2.00
2019-01-31T05:40:27.080Z,1.90
2019-01-31T05:42:57.836Z,1.80
2019-01-31T05:45:28.546Z,1.80
2019-01-31T05:47:59.236Z,1.70
2019-01-31T05:50:29.054Z,1.70
2019-01-31T05:52:58.543Z,1.60
2019-01-31T05:55:29.408Z,1.50
2019-01-31T05:58:00.252Z,1.40
2019-01-31T06:00:35.832Z,1.30
2019-01-31T06:03:06.582Z,1.20
2019-01-31T06:05:37.749Z,1.00
2019-01-31T06:08:07.603Z,0.90
2019-01-31T06:10:37.203Z,0.70
2019-01-31T06:13:06.768Z,0.70
2019-01-31T06:15:37.426Z,0.60
2019-01-31T06:18:08.303Z,0.50
2019-01-31T06:20:39.018Z,0.30
2019-01-31T06:23:09.835Z,0.30
2019-01-31T06:25:40.788Z,0.30
2019-01-31T06:28:12.972Z,0.20
2019-01-31T06:30:42.817Z,0.20
2019-01-31T06:33:13.481Z,0.20
2019-01-31T06:35:44.291Z,0.20
2019-01-31T06:38:15.013Z,0.20
2019-01-31T06:40:45.682Z,0.20
2019-01-31T06:43:17.164Z,0.20
2019-01-31T06:45:47.750Z,0.20
2019-01-31T06:48:18.599Z,0.20
2019-01-31T06:50:49.350Z,0.20
2019-01-31T06:53:21.614Z,0.20
2019-01-31T06:55:52.445Z,0.20
2019-01-31T06:58:26.039Z,0.30
2019-01-31T07:00:57.380Z,0.30
2019-01-31T07:03:31.696Z,0.30
2019-01-31T07:06:02.416Z,0.40
2019-01-31T07:08:35.718Z,0.30
2019-01-31T07:11:06.424Z,0.20
2019-01-31T07:13:37.138Z,0.20
2019-01-31T07:16:08.444Z,0.20
2019-01-31T07:18:39.162Z,0.20
2019-01-31T07:21:11.634Z,0.30
2019-01-31T07:23:42.505Z,0.30
2019-01-31T07:26:17.981Z,0.30
2019-01-31T07:28:53.609Z,0.30
2019-01-31T07:31:24.692Z,0.40
2019-01-31T07:34:14.853Z,0.40
2019-01-31T07:36:47.644Z,0.40
2019-01-31T07:39:18.616Z,0.50
2019-01-31T07:41:49.879Z,0.50
2019-01-31T07:44:26.094Z,0.70
2019-01-31T07:46:57.525Z,1.20
2019-01-31T07:49:32.172Z,1.20
2019-01-31T07:53:07.867Z,1.20
2019-01-31T07:55:59.233Z,1.70
2019-01-31T07:58:49.262Z,4.60
2019-01-31T08:01:36.529Z,6.50
2019-01-31T08:04:24.694Z,8.20
2019-01-31T08:07:10.801Z,9.30
2019-01-31T08:13:36.592Z,10.90
2019-01-31T08:16:10.001Z,12.50
2019-01-31T08:18:53.857Z,13.00
2019-01-31T08:21:24.849Z,13.90
2019-01-31T08:28:53.815Z,14.40
2019-01-31T08:35:16.821Z,14.50
2019-01-31T08:42:03.518Z,15.40
2019-01-31T08:48:12.497Z,14.60
2019-01-31T08:51:11.467Z,16.10
2019-01-31T08:54:14.478Z,16.80
2019-01-31T08:57:36.910Z,16.70
2019-01-31T09:00:54.991Z,16.50
2019-01-31T09:04:01.597Z,17.70
2019-01-31T09:07:01.932Z,17.70
2019-01-31T09:09:43.476Z,17.80
2019-01-31T09:12:57.228Z,18.30
2019-01-31T09:16:03.429Z,18.00
2019-01-31T09:18:54.078Z,18.60
2019-01-31T09:22:44.962Z,19.40
2019-01-31T09:26:28.574Z,19.40
2019-01-31T09:29:47.944Z,19.20
2019-01-31T09:33:06.348Z,19.10
2019-01-31T09:36:42.469Z,19.20
2019-01-31T09:40:26.238Z,18.50
2019-01-31T09:43:56.841Z,19.70
2019-01-31T09:47:23.718Z,19.50
2019-01-31T09:50:35.240Z,18.30
2019-01-31T09:54:23.556Z,16.30
2019-01-31T09:58:01.102Z,17.40
2019-01-31T10:01:08.421Z,19.10
2019-01-31T10:04:25.197Z,20.00
2019-01-31T10:07:24.277Z,20.70
2019-01-31T10:10:36.938Z,19.90
2019-01-31T10:14:41.288Z,19.80
2019-01-31T10:17:55.390Z,20.40
2019-01-31T10:21:28.624Z,20.90
2019-01-31T10:54:16.636Z,20.40
2019-01-31T10:57:26.290Z,21.60
2019-01-31T11:00:42.374Z,20.00
2019-01-31T11:03:40.716Z,21.10
2019-01-31T11:06:33.702Z,19.60
2019-01-31T11:09:25.126Z,17.70
2019-01-31T11:12:27.565Z,16.90
2019-01-31T11:15:39.318Z,18.30
2019-01-31T11:18:37.969Z,19.10
2019-01-31T11:21:42.579Z,18.00
2019-01-31T11:24:37.562Z,19.00
2019-01-31T11:27:55.677Z,19.50
2019-01-31T11:30:58.996Z,19.50
2019-01-31T11:33:42.658Z,19.10
2019-01-31T11:36:42.111Z,19.10
2019-01-31T11:39:36.427Z,19.70
2019-01-31T11:42:44.822Z,19.40
2019-01-31T11:46:08.872Z,19.70
2019-01-31T11:49:08.629Z,19.40
2019-01-31T11:52:31.955Z,19.70
2019-01-31T11:55:39.654Z,18.50
2019-01-31T11:58:33.278Z,13.50
2019-01-31T12:01:07.705Z,10.20
2019-01-31T12:03:38.846Z,8.10
2019-01-31T12:06:09.586Z,6.90
2019-01-31T12:08:40.253Z,6.10
2019-01-31T12:11:10.997Z,5.50
2019-01-31T12:13:41.677Z,5.20
2019-01-31T12:16:12.328Z,5.00
2019-01-31T12:18:42.118Z,4.80
2019-01-31T12:21:11.611Z,4.60
2019-01-31T12:23:42.420Z,4.60
2019-01-31T12:26:14.045Z,4.60
2019-01-31T12:28:44.941Z,4.60
2019-01-31T12:31:15.710Z,4.50
2019-01-31T12:33:45.497Z,4.40
2019-01-31T12:36:15.301Z,4.20
2019-01-31T12:38:45.205Z,4.30
2019-01-31T12:41:14.595Z,4.40
2019-01-31T12:43:44.545Z,4.50
2019-01-31T12:46:14.192Z,4.60
2019-01-31T12:48:44.643Z,4.60
2019-01-31T12:51:15.257Z,4.60
2019-01-31T12:53:45.942Z,4.70
2019-01-31T12:56:16.839Z,4.70
2019-01-31T12:58:47.813Z,4.70
2019-01-31T13:01:18.384Z,4.70
2019-01-31T13:03:49.117Z,4.60
2019-01-31T13:06:19.987Z,4.60
2019-01-31T13:08:50.673Z,4.60
2019-01-31T13:11:21.326Z,4.60
2019-01-31T13:13:51.866Z,4.70
2019-01-31T13:16:22.647Z,5.20
2019-01-31T13:18:53.204Z,4.60
2019-01-31T13:21:23.997Z,4.60
2019-01-31T13:23:54.621Z,4.50
2019-01-31T13:26:25.252Z,4.60
2019-01-31T13:28:55.896Z,4.50
2019-01-31T13:31:26.572Z,4.40
2019-01-31T13:33:57.181Z,4.40
2019-01-31T13:36:28.213Z,4.30
2019-01-31T13:38:58.778Z,4.30
2019-01-31T13:41:29.551Z,4.30
2019-01-31T13:44:01.073Z,4.20
2019-01-31T13:46:31.743Z,4.20
2019-01-31T13:49:04.532Z,4.20
2019-01-31T13:51:35.232Z,4.20
2019-01-31T13:54:06.374Z,4.20
2019-01-31T13:56:45.201Z,4.20
2019-01-31T13:59:10.983Z,4.10
2019-01-31T14:01:41.618Z,4.00
2019-01-31T14:04:12.509Z,4.00
2019-01-31T14:06:43.539Z,4.00
2019-01-31T14:09:14.158Z,4.00
2019-01-31T14:11:44.729Z,4.00
2019-01-31T14:14:15.677Z,4.00
2019-01-31T14:16:47.973Z,4.00
2019-01-31T14:19:20.353Z,3.90
2019-01-31T14:21:52.069Z,4.00
2019-01-31T14:24:22.705Z,4.00
2019-01-31T14:26:53.892Z,4.00
2019-01-31T14:29:26.670Z,4.00
2019-01-31T14:31:57.421Z,4.00
2019-01-31T14:34:28.030Z,4.00
2019-01-31T14:36:58.806Z,4.00
2019-01-31T14:39:29.617Z,4.10
2019-01-31T14:42:02.228Z,4.10
2019-01-31T14:44:33.053Z,4.10
2019-01-31T14:47:04.084Z,4.00
2019-01-31T14:49:34.665Z,4.00
2019-01-31T14:52:06.019Z,4.00
2019-01-31T14:54:36.683Z,4.00
2019-01-31T14:57:07.481Z,4.00
2019-01-31T14:59:38.422Z,3.90
2019-01-31T15:02:09.022Z,3.90
2019-01-31T15:04:38.910Z,3.90
2019-01-31T15:07:08.448Z,3.80
2019-01-31T15:09:37.943Z,3.80
2019-01-31T15:12:08.782Z,3.80
2019-01-31T15:14:38.286Z,3.70
2019-01-31T15:17:09.796Z,3.70
2019-01-31T15:19:39.346Z,3.60
2019-01-31T15:22:09.214Z,3.60
2019-01-31T15:24:39.886Z,3.60
2019-01-31T15:27:10.555Z,3.50
2019-01-31T15:29:42.738Z,3.50
2019-01-31T15:32:17.658Z,3.40
2019-01-31T15:34:48.199Z,3.40
2019-01-31T15:37:18.770Z,3.30
2019-01-31T15:39:51.582Z,3.30
2019-01-31T15:42:22.293Z,3.30
2019-01-31T15:44:52.946Z,3.20
2019-01-31T15:47:26.962Z,3.20
2019-01-31T15:49:57.682Z,3.20
2019-01-31T15:52:28.272Z,3.10
2019-01-31T15:54:58.956Z,3.10
2019-01-31T15:57:29.617Z,3.00
2019-01-31T16:00:00.365Z,2.90
2019-01-31T16:02:31.061Z,2.90
2019-01-31T16:05:01.697Z,2.90
2019-01-31T16:07:32.317Z,2.70
2019-01-31T16:10:03.003Z,2.60
2019-01-31T16:12:35.437Z,2.50
2019-01-31T16:15:07.731Z,2.40
2019-01-31T16:17:38.453Z,2.40
2019-01-31T16:20:11.299Z,2.30
2019-01-31T16:22:42.266Z,2.30
2019-01-31T16:25:12.969Z,2.30
2019-01-31T16:27:43.635Z,2.30
2019-01-31T16:30:14.991Z,2.20
2019-01-31T16:32:44.733Z,2.20
2019-01-31T16:35:14.417Z,2.10
2019-01-31T16:37:44.006Z,2.10
2019-01-31T16:40:14.109Z,2.10
2019-01-31T16:42:43.662Z,2.10
2019-01-31T16:45:13.275Z,2.20
2019-01-31T16:47:42.978Z,2.10
2019-01-31T16:50:13.897Z,2.10
2019-01-31T16:52:43.609Z,2.10
2019-01-31T16:55:14.054Z,2.00
2019-01-31T16:57:45.496Z,2.00
2019-01-31T17:00:19.202Z,1.90
2019-01-31T17:02:50.721Z,1.90
2019-01-31T17:05:24.058Z,1.80
2019-01-31T17:08:00.542Z,1.70
2019-01-31T17:10:35.542Z,1.70
2019-01-31T17:13:05.738Z,1.70
2019-01-31T17:15:42.722Z,1.60
2019-01-31T17:18:15.565Z,1.50
2019-01-31T17:20:47.875Z,1.40
2019-01-31T17:23:20.366Z,1.40
2019-01-31T17:25:51.249Z,1.40
2019-01-31T17:28:44.222Z,1.40
2019-01-31T17:31:16.208Z,1.30
2019-01-31T17:33:48.551Z,1.30
2019-01-31T17:36:22.905Z,1.30
2019-01-31T17:38:52.528Z,1.30
2019-01-31T17:41:24.314Z,1.30
2019-01-31T17:43:56.275Z,1.30
2019-01-31T17:46:29.014Z,1.30
2019-01-31T17:49:00.070Z,1.20
2019-01-31T17:51:30.795Z,1.20
2019-01-31T17:54:01.706Z,1.20
2019-01-31T17:56:32.373Z,1.20
2019-01-31T17:59:04.922Z,1.10
2019-01-31T18:01:39.647Z,1.00
2019-01-31T18:04:09.313Z,1.00
2019-01-31T18:06:39.230Z,1.00
2019-01-31T18:09:09.266Z,1.00
2019-01-31T18:11:40.581Z,1.10
2019-01-31T18:14:13.390Z,1.20
2019-01-31T18:16:45.090Z,1.20
2019-01-31T18:19:17.168Z,1.50
2019-01-31T18:21:48.206Z,1.30
2019-01-31T18:24:26.655Z,1.40
2019-01-31T18:27:04.988Z,1.40
2019-01-31T18:29:36.797Z,1.60
2019-01-31T18:32:08.855Z,1.60
2019-01-31T18:34:41.410Z,1.60
2019-01-31T18:37:25.255Z,1.60
2019-01-31T18:39:51.911Z,1.70
2019-01-31T18:42:21.419Z,1.70
2019-01-31T18:44:53.048Z,1.70
2019-01-31T18:47:25.690Z,1.70
2019-01-31T18:49:56.695Z,1.80
2019-01-31T18:52:28.245Z,1.80
2019-01-31T18:54:57.998Z,1.80
2019-01-31T18:57:28.971Z,1.80
2019-01-31T19:00:01.467Z,1.80
2019-01-31T19:02:37.325Z,1.80
2019-01-31T19:05:10.158Z,1.80
2019-01-31T19:07:39.899Z,1.80
2019-01-31T19:10:09.540Z,1.80
2019-01-31T19:12:50.046Z,1.80
2019-01-31T19:15:23.918Z,1.80
2019-01-31T19:18:04.502Z,1.70
2019-01-31T19:20:32.133Z,1.70
2019-01-31T19:23:02.054Z,1.70
2019-01-31T19:25:32.676Z,1.70
2019-01-31T19:28:07.160Z,1.70
2019-01-31T19:30:42.690Z,1.70
2019-01-31T19:33:15.300Z,1.70
2019-01-31T19:35:47.402Z,1.70
2019-01-31T19:38:19.237Z,1.60
2019-01-31T19:40:51.660Z,1.50
2019-01-31T19:43:21.938Z,1.50
2019-01-31T19:45:53.432Z,1.60
2019-01-31T19:48:23.072Z,1.60
2019-01-31T19:50:55.497Z,1.60
2019-01-31T19:53:35.534Z,1.60
2019-01-31T19:56:11.983Z,1.70
2019-01-31T19:58:43.529Z,1.70
2019-01-31T20:01:13.295Z,1.60
2019-01-31T20:03:44.231Z,1.70
2019-01-31T20:06:19.829Z,1.70
2019-01-31T20:09:03.239Z,1.60
2019-01-31T20:11:35.526Z,1.50
2019-01-31T20:14:08.198Z,1.40
2019-01-31T20:16:43.424Z,1.30
2019-01-31T20:19:15.637Z,1.20
2019-01-31T20:21:51.981Z,1.10
2019-01-31T20:24:25.556Z,1.00
2019-01-31T20:26:56.152Z,0.90
2019-01-31T20:29:28.302Z,0.90
2019-01-31T20:31:59.837Z,0.80
2019-01-31T20:34:29.661Z,0.90
2019-01-31T20:37:03.264Z,0.80
2019-01-31T20:39:40.013Z,0.70
2019-01-31T20:42:14.785Z,0.70
2019-01-31T20:44:44.235Z,0.80
2019-01-31T20:47:15.782Z,0.90
2019-01-31T20:49:48.674Z,0.90
2019-01-31T20:52:20.652Z,1.00
2019-01-31T20:54:56.213Z,1.10
2019-01-31T20:57:35.235Z,1.10
2019-01-31T21:00:07.588Z,1.20
2019-01-31T21:02:40.265Z,1.20
2019-01-31T21:05:12.557Z,1.20
2019-01-31T21:07:42.626Z,1.30
2019-01-31T21:10:12.625Z,1.30
2019-01-31T21:12:44.881Z,1.30
2019-01-31T21:15:16.204Z,1.30
2019-01-31T21:17:47.765Z,1.30
2019-01-31T21:20:20.274Z,1.40
2019-01-31T21:22:54.463Z,1.40
2019-01-31T21:25:24.248Z,1.40
2019-01-31T21:27:56.784Z,1.40
2019-01-31T21:30:31.563Z,1.40
2019-01-31T21:33:01.107Z,1.40
2019-01-31T21:35:30.681Z,1.40
2019-01-31T21:38:00.260Z,1.50
2019-01-31T21:40:31.083Z,1.50
2019-01-31T21:43:00.553Z,1.50
2019-01-31T21:45:30.398Z,1.50
2019-01-31T21:48:02.216Z,1.50
2019-01-31T21:50:32.333Z,1.50
2019-01-31T21:53:01.929Z,1.50
2019-01-31T21:55:44.131Z,1.50
2019-01-31T21:58:13.649Z,1.40
2019-01-31T22:00:43.147Z,1.30
2019-01-31T22:03:12.627Z,1.30
2019-01-31T22:05:42.475Z,1.20
2019-01-31T22:08:12.001Z,1.10
2019-01-31T22:10:41.591Z,1.10
2019-01-31T22:13:11.101Z,1.00
2019-01-31T22:15:40.757Z,0.90
2019-01-31T22:18:10.345Z,0.90
2019-01-31T22:20:39.830Z,0.80
2019-01-31T22:23:09.498Z,0.70
2019-01-31T22:25:38.997Z,0.60
2019-01-31T22:28:08.771Z,0.50
2019-01-31T22:30:38.301Z,0.40
2019-01-31T22:33:08.444Z,0.30
2019-01-31T22:35:37.822Z,0.20
2019-01-31T22:38:07.383Z,0.20
2019-01-31T22:40:36.862Z,0.20
2019-01-31T22:43:06.459Z,0.20
2019-01-31T22:45:36.255Z,0.10
2019-01-31T22:48:06.883Z,0.10
2019-01-31T22:50:36.558Z,0.00
2019-01-31T22:53:06.140Z,0.00
2019-01-31T22:55:35.708Z,0.00
2019-01-31T22:58:05.819Z,0.00
2019-01-31T23:01:07.254Z,0.00
2019-01-31T23:03:36.781Z,0.00
2019-01-31T23:06:09.755Z,0.00
2019-01-31T23:08:39.359Z,-0.10
2019-01-31T23:11:11.555Z,-0.10
2019-01-31T23:13:41.055Z,-0.10
2019-01-31T23:16:10.771Z,-0.20
2019-01-31T23:18:40.261Z,-0.10
2019-01-31T23:21:09.722Z,-0.20
2019-01-31T23:23:39.213Z,-0.20
2019-01-31T23:26:09.577Z,-0.30
2019-01-31T23:28:40.381Z,-0.30
2019-01-31T23:31:12.105Z,-0.30
2019-01-31T23:33:43.814Z,-0.40
2019-01-31T23:36:13.544Z,-0.30
2019-01-31T23:38:43.046Z,-0.40
2019-01-31T23:41:12.781Z,-0.40
2019-01-31T23:43:42.646Z,-0.50
2019-01-31T23:46:12.320Z,-0.60
2019-01-31T23:48:41.813Z,-0.60
2019-01-31T23:51:11.325Z,-0.70
2019-01-31T23:53:40.895Z,-0.70
2019-01-31T23:56:10.411Z,-0.70
2019-01-31T23:58:40.163Z,-0.70
